createdAt,value
2024-05-09T00:14:37.504Z,100698.41
2024-05-09T00:44:44.231Z,100692.28
2024-05-09T01:14:51.270Z,100672.66
2024-05-09T01:44:58.012Z,100654.09
2024-05-09T02:15:05.200Z,100669.66
2024-05-09T02:45:12.034Z,100701.09
2024-05-09T03:15:19.218Z,100714.44
2024-05-09T03:45:26.282Z,100731.97
2024-05-09T04:15:33.427Z,100738.59
2024-05-09T04:45:40.256Z,100755.28
2024-05-09T05:15:47.671Z,100768.13
2024-05-09T05:45:54.543Z,100755.97
2024-05-09T06:16:01.526Z,100735.25
2024-05-09T06:46:08.260Z,100741.38
2024-05-09T07:16:15.291Z,100733.44
2024-05-09T08:16:31.797Z,100730.00
2024-05-09T08:46:39.392Z,100735.78
2024-05-09T09:16:46.395Z,100733.41
2024-05-09T09:46:56.210Z,100729.13
2024-05-09T10:17:08.636Z,100735.19
2024-05-09T10:47:16.346Z,100739.72
2024-05-09T11:17:24.052Z,100743.53
2024-05-09T11:47:31.058Z,100737.53
2024-05-09T12:17:38.174Z,100741.22
2024-05-09T12:47:45.021Z,100778.84
2024-05-09T13:17:52.316Z,100822.28
2024-05-09T13:47:59.844Z,100865.53
2024-05-09T14:18:11.448Z,100889.31
2024-05-09T14:48:20.653Z,100921.50
2024-05-09T15:18:27.910Z,100922.16
2024-05-09T15:48:34.856Z,100909.03
2024-05-09T16:18:42.381Z,100944.94
2024-05-09T16:48:49.300Z,100946.28
2024-05-09T17:18:56.331Z,100972.34
2024-05-09T17:49:03.156Z,100947.53
2024-05-09T18:19:10.361Z,100937.72
2024-05-09T18:49:17.595Z,100933.84
2024-05-09T19:19:24.839Z,100915.56
2024-05-09T19:49:31.823Z,100899.50
2024-05-09T20:19:38.935Z,100891.47
2024-05-09T20:49:45.823Z,100882.28
2024-05-09T21:19:53.139Z,100901.34
2024-05-09T21:49:59.849Z,100899.34
2024-05-09T22:20:14.680Z,100890.56
2024-05-09T22:50:27.065Z,100855.66
2024-05-09T23:20:41.386Z,100843.22
2024-05-09T23:50:48.103Z,100847.28
